< < Back
Terminal Aerodrome Forecast


Current Version              Previous Versions:   1  2  3  4  5  6  7  8  9  

Terminal Aerodrome Forecast

734
FTAK31 PAJN 211300 AAA
TAFAHN
TAF AMD
PAHN 211305Z 2113/2212 29005KT P6SM VCSH BKN020 OVC050
     FM211800 30006KT P6SM VCSH BKN080
     FM220000 VRB05KT P6SM SCT080
      AMD LTD TO CLD VIS AND WIND=

Latest METAR

469
SAUS70 KWBC 211400 RRA
MTRAHN
METAR KAHN 211351Z VRB05KT 10SM CLR 17/05 A2998 RMK AO2 SLP149
T01670050


USA.gov is the U.S. government's official web portal to all federal, state and local government web resources and services.